createdAt,value
2022-10-28T00:00:35.153Z,100.00
2022-10-28T00:03:45.472Z,100.00
2022-10-28T00:06:54.618Z,100.00
2022-10-28T00:10:03.547Z,100.00
2022-10-28T00:13:12.412Z,100.00
2022-10-28T00:16:24.892Z,100.00
2022-10-28T00:19:33.776Z,100.00
2022-10-28T00:22:42.732Z,100.00
2022-10-28T00:25:52.899Z,100.00
2022-10-28T00:29:19.631Z,100.00
2022-10-28T00:32:31.993Z,100.00
2022-10-28T00:35:40.895Z,100.00
2022-10-28T00:38:53.555Z,100.00
2022-10-28T00:42:03.804Z,100.00
2022-10-28T00:45:13.257Z,100.00
2022-10-28T00:48:23.533Z,100.00
2022-10-28T00:51:33.608Z,100.00
2022-10-28T00:54:42.548Z,100.00
2022-10-28T00:57:51.787Z,100.00
2022-10-28T01:01:00.931Z,100.00
2022-10-28T01:04:11.736Z,100.00
2022-10-28T01:07:21.094Z,100.00
2022-10-28T01:10:41.574Z,100.00
2022-10-28T01:14:01.602Z,100.00
2022-10-28T01:17:33.549Z,100.00
2022-10-28T01:21:18.561Z,100.00
2022-10-28T01:24:41.826Z,100.00
2022-10-28T01:28:14.582Z,100.00
2022-10-28T09:47:18.092Z,81.74
2022-10-28T09:49:47.933Z,93.08
2022-10-28T09:52:20.406Z,100.00
2022-10-28T09:54:52.059Z,100.00
2022-10-28T09:57:21.287Z,100.00
2022-10-28T09:59:49.972Z,86.90
2022-10-28T10:02:29.762Z,80.22
2022-10-28T10:04:58.977Z,79.33
2022-10-28T10:07:35.459Z,69.50
2022-10-28T10:10:07.932Z,71.33
2022-10-28T10:12:36.702Z,89.28
2022-10-28T10:15:07.489Z,83.44
2022-10-28T10:17:41.944Z,71.53
2022-10-28T10:20:13.390Z,70.68
2022-10-28T10:22:43.268Z,83.13
2022-10-28T10:25:30.097Z,80.98
2022-10-28T10:28:01.462Z,69.68
2022-10-28T10:30:32.824Z,60.37
2022-10-28T10:33:03.405Z,69.73
2022-10-28T10:35:33.131Z,78.29
2022-10-28T10:38:02.083Z,73.14
2022-10-28T10:40:32.520Z,65.32
2022-10-28T10:43:20.333Z,52.77
2022-10-28T10:45:53.615Z,46.59
2022-10-28T10:48:23.660Z,43.52
2022-10-28T10:50:52.537Z,39.18
2022-10-28T10:53:24.414Z,47.44
2022-10-28T10:55:55.762Z,47.14
2022-10-28T10:58:26.080Z,48.93
2022-10-28T11:00:56.988Z,56.29
2022-10-28T11:03:30.027Z,55.29
2022-10-28T11:06:21.855Z,53.18
2022-10-28T11:08:49.041Z,73.26
2022-10-28T11:11:21.359Z,80.04
2022-10-28T11:13:50.753Z,86.71
2022-10-28T11:16:21.417Z,75.50
2022-10-28T11:18:53.032Z,85.53
2022-10-28T11:21:43.349Z,85.46
2022-10-28T11:24:32.205Z,85.11
2022-10-28T11:27:06.014Z,80.82
2022-10-28T11:29:34.835Z,67.44
2022-10-28T11:32:20.371Z,72.00
2022-10-28T11:35:00.645Z,77.40
2022-10-28T11:37:38.299Z,65.83
2022-10-28T11:40:19.040Z,75.11
2022-10-28T11:42:53.014Z,91.94
2022-10-28T11:45:26.740Z,82.20
2022-10-28T11:48:13.504Z,86.47
2022-10-28T11:50:54.403Z,72.89
2022-10-28T11:53:36.286Z,83.43
2022-10-28T11:56:10.729Z,69.58
2022-10-28T11:58:43.760Z,74.54
2022-10-28T12:01:22.238Z,80.85
2022-10-28T12:04:01.291Z,84.67
2022-10-28T12:06:42.028Z,78.65
2022-10-28T12:09:19.331Z,81.59
2022-10-28T12:11:58.088Z,76.98
2022-10-28T12:14:34.673Z,73.91
2022-10-28T12:17:13.023Z,82.76
2022-10-28T12:19:45.332Z,93.98
2022-10-28T12:22:18.097Z,97.75
2022-10-28T12:24:47.703Z,100.00
2022-10-28T12:27:18.706Z,100.00
2022-10-28T12:29:49.640Z,100.00
2022-10-28T12:32:21.796Z,100.00
2022-10-28T12:34:53.066Z,100.00
2022-10-28T12:37:25.508Z,87.55
2022-10-28T12:39:57.979Z,79.00
2022-10-28T12:42:30.435Z,84.29
2022-10-28T12:45:00.578Z,100.00
2022-10-28T12:47:29.274Z,94.47
2022-10-28T12:50:05.949Z,90.33
2022-10-28T12:52:48.904Z,82.02
2022-10-28T12:55:22.465Z,80.05
2022-10-28T12:57:55.320Z,86.86
2022-10-28T13:00:27.316Z,100.00
2022-10-28T13:03:02.055Z,100.00
2022-10-28T13:05:35.594Z,100.00
2022-10-28T13:08:33.603Z,100.00
2022-10-28T13:11:36.984Z,100.00
2022-10-28T13:14:13.607Z,100.00
2022-10-28T13:17:16.507Z,98.68
2022-10-28T13:20:04.643Z,100.00
2022-10-28T13:22:50.841Z,100.00
2022-10-28T13:25:34.181Z,100.00
2022-10-28T13:28:02.878Z,100.00
2022-10-28T13:30:32.232Z,100.00
2022-10-28T13:33:06.493Z,100.00
2022-10-28T13:35:35.639Z,100.00
2022-10-28T13:38:04.643Z,100.00
2022-10-28T13:41:28.046Z,100.00
2022-10-28T13:44:16.092Z,100.00
2022-10-28T13:47:27.770Z,100.00
2022-10-28T13:50:32.686Z,100.00
2022-10-28T13:53:41.665Z,100.00
2022-10-28T13:56:33.290Z,100.00
2022-10-28T13:59:04.031Z,100.00
2022-10-28T14:02:02.275Z,100.00
2022-10-28T14:04:44.033Z,100.00
2022-10-28T14:07:24.497Z,100.00
2022-10-28T14:09:55.582Z,100.00
2022-10-28T14:12:28.158Z,100.00
2022-10-28T14:15:07.681Z,100.00
2022-10-28T14:17:39.052Z,100.00
2022-10-28T14:20:21.780Z,100.00
2022-10-28T14:22:51.234Z,100.00
2022-10-28T14:26:04.628Z,100.00
2022-10-28T14:28:54.592Z,100.00
2022-10-28T14:31:41.112Z,100.00
2022-10-28T14:34:33.791Z,100.00
2022-10-28T14:37:11.745Z,100.00
2022-10-28T14:39:42.420Z,100.00
2022-10-28T14:42:30.425Z,100.00
2022-10-28T14:45:20.528Z,100.00
2022-10-28T14:48:04.665Z,100.00
2022-10-28T14:50:39.503Z,100.00
2022-10-28T14:53:13.658Z,100.00
2022-10-28T14:55:42.181Z,100.00
2022-10-28T14:58:19.906Z,100.00
2022-10-28T15:00:57.147Z,100.00
2022-10-28T15:03:26.628Z,100.00
2022-10-28T15:05:55.325Z,100.00
2022-10-28T15:08:25.689Z,100.00
2022-10-28T15:10:54.013Z,100.00
2022-10-28T15:13:27.573Z,100.00
2022-10-28T15:15:59.469Z,100.00
2022-10-28T15:18:31.092Z,100.00
2022-10-28T15:21:10.122Z,100.00
2022-10-28T15:23:39.167Z,100.00
2022-10-28T15:26:09.020Z,100.00
2022-10-28T15:28:38.115Z,100.00
2022-10-28T15:31:08.312Z,100.00
2022-10-28T15:33:40.555Z,100.00
2022-10-28T15:36:16.661Z,100.00
2022-10-28T15:38:47.392Z,100.00
2022-10-28T15:41:41.957Z,100.00
2022-10-28T15:44:29.089Z,100.00
2022-10-28T15:46:59.614Z,100.00
2022-10-28T15:49:36.933Z,100.00
2022-10-28T15:52:33.706Z,100.00
2022-10-28T15:55:03.472Z,100.00
2022-10-28T15:57:36.563Z,100.00
2022-10-28T16:00:23.440Z,100.00
2022-10-28T16:02:56.368Z,100.00
2022-10-28T16:05:55.485Z,100.00
2022-10-28T16:08:26.462Z,100.00
2022-10-28T16:10:57.788Z,100.00
2022-10-28T16:13:29.622Z,100.00
2022-10-28T16:16:04.472Z,100.00
2022-10-28T16:18:39.948Z,100.00
2022-10-28T16:21:08.811Z,100.00
2022-10-28T16:23:40.243Z,100.00
2022-10-28T16:26:10.622Z,100.00
2022-10-28T16:28:41.418Z,100.00
2022-10-28T16:31:16.851Z,100.00
2022-10-28T16:33:47.178Z,100.00
2022-10-28T16:36:16.066Z,100.00
2022-10-28T16:38:44.779Z,100.00
2022-10-28T16:41:16.531Z,100.00
2022-10-28T16:43:45.608Z,100.00
2022-10-28T16:46:14.971Z,100.00
2022-10-28T16:48:43.670Z,100.00
2022-10-28T16:51:16.566Z,100.00
2022-10-28T16:53:47.387Z,100.00
2022-10-28T16:56:16.337Z,100.00
2022-10-28T16:58:46.315Z,100.00
2022-10-28T17:01:19.281Z,100.00
2022-10-28T17:03:48.079Z,100.00
2022-10-28T17:06:18.151Z,100.00
2022-10-28T17:09:02.443Z,100.00
2022-10-28T17:14:05.812Z,100.00
2022-10-28T17:16:35.978Z,100.00
2022-10-28T17:19:06.753Z,100.00
2022-10-28T17:21:36.800Z,100.00
2022-10-28T17:24:05.850Z,100.00
2022-10-28T17:26:34.591Z,100.00
2022-10-28T17:29:03.336Z,100.00
2022-10-28T17:31:31.668Z,100.00
2022-10-28T17:34:00.405Z,100.00
2022-10-28T17:36:29.057Z,100.00
2022-10-28T17:38:59.250Z,100.00
2022-10-28T17:41:27.989Z,100.00
2022-10-28T17:43:56.424Z,100.00
2022-10-28T17:46:25.223Z,100.00
2022-10-28T17:48:53.882Z,100.00
2022-10-28T17:51:25.154Z,100.00
2022-10-28T17:53:55.084Z,100.00
2022-10-28T17:56:25.245Z,100.00
2022-10-28T17:58:54.429Z,100.00
2022-10-28T18:01:23.174Z,100.00
2022-10-28T18:03:52.367Z,100.00
2022-10-28T18:06:21.394Z,100.00
2022-10-28T18:11:26.602Z,100.00
2022-10-28T18:13:56.445Z,100.00
2022-10-28T18:16:28.243Z,100.00
2022-10-28T18:18:57.264Z,100.00
2022-10-28T18:21:26.018Z,100.00
2022-10-28T18:24:03.777Z,100.00
2022-10-28T18:26:35.427Z,100.00
2022-10-28T18:29:05.048Z,100.00
2022-10-28T18:31:34.273Z,100.00
2022-10-28T18:34:03.520Z,100.00
2022-10-28T18:36:34.621Z,100.00
2022-10-28T18:39:04.780Z,100.00
2022-10-28T18:41:38.071Z,100.00
2022-10-28T18:44:07.022Z,100.00
2022-10-28T18:46:37.705Z,100.00
2022-10-28T18:49:06.846Z,100.00
2022-10-28T18:51:35.536Z,100.00
2022-10-28T18:54:05.079Z,100.00
2022-10-28T18:56:35.295Z,100.00
2022-10-28T18:59:05.272Z,100.00
2022-10-28T19:01:34.068Z,100.00
2022-10-28T19:04:04.310Z,100.00
2022-10-28T19:06:34.507Z,100.00
2022-10-28T19:09:04.661Z,100.00
2022-10-28T19:11:35.202Z,100.00
2022-10-28T19:14:05.663Z,100.00
2022-10-28T19:16:34.888Z,100.00
2022-10-28T19:19:05.067Z,100.00
2022-10-28T19:21:34.583Z,100.00
2022-10-28T19:24:03.635Z,100.00
2022-10-28T19:26:33.715Z,100.00
2022-10-28T19:29:05.543Z,100.00
2022-10-28T19:31:37.006Z,100.00
2022-10-28T19:34:05.751Z,100.00
2022-10-28T19:36:35.100Z,100.00
2022-10-28T19:39:04.808Z,100.00
2022-10-28T19:41:33.650Z,100.00
2022-10-28T19:44:04.285Z,100.00
2022-10-28T19:46:34.041Z,100.00
2022-10-28T19:49:05.299Z,100.00
2022-10-28T19:51:35.799Z,100.00
2022-10-28T19:54:06.110Z,100.00
2022-10-28T19:56:36.216Z,100.00
2022-10-28T19:59:07.704Z,100.00
2022-10-28T20:01:37.497Z,100.00
2022-10-28T20:04:06.984Z,100.00
2022-10-28T20:06:37.083Z,100.00
2022-10-28T20:09:06.160Z,100.00
2022-10-28T20:11:35.933Z,100.00
2022-10-28T20:14:08.503Z,100.00
2022-10-28T20:16:37.240Z,100.00
2022-10-28T20:19:05.996Z,100.00
2022-10-28T20:21:35.288Z,100.00
2022-10-28T20:24:06.828Z,100.00
2022-10-28T20:26:36.839Z,100.00
2022-10-28T20:29:09.856Z,100.00
2022-10-28T20:31:39.662Z,100.00
2022-10-28T20:34:08.731Z,100.00
2022-10-28T20:36:38.737Z,100.00
2022-10-28T20:39:10.493Z,100.00
2022-10-28T20:41:40.424Z,100.00
2022-10-28T20:44:10.804Z,100.00
2022-10-28T20:46:39.356Z,100.00
2022-10-28T20:49:08.811Z,100.00
2022-10-28T20:51:38.026Z,100.00
2022-10-28T20:54:07.050Z,100.00
2022-10-28T20:56:37.400Z,100.00
2022-10-28T20:59:06.413Z,100.00
2022-10-28T21:01:37.846Z,100.00
2022-10-28T21:04:08.033Z,100.00
2022-10-28T21:06:37.711Z,100.00
2022-10-28T21:09:06.518Z,100.00
2022-10-28T21:11:35.239Z,100.00
2022-10-28T21:14:04.100Z,100.00
2022-10-28T21:16:32.418Z,100.00
2022-10-28T21:19:02.996Z,100.00
2022-10-28T21:21:31.875Z,100.00
2022-10-28T21:24:00.586Z,100.00
2022-10-28T21:26:29.200Z,100.00
2022-10-28T21:28:57.773Z,100.00
2022-10-28T21:31:26.096Z,100.00
2022-10-28T21:33:54.777Z,100.00
2022-10-28T21:36:24.798Z,100.00
2022-10-28T21:38:56.561Z,100.00
2022-10-28T21:41:26.044Z,100.00
2022-10-28T21:43:55.059Z,100.00
2022-10-28T21:46:24.724Z,100.00
2022-10-28T21:48:53.887Z,100.00
2022-10-28T21:51:22.578Z,100.00
2022-10-28T21:53:52.629Z,100.00
2022-10-28T21:56:21.582Z,100.00
2022-10-28T21:58:50.893Z,100.00
2022-10-28T22:01:21.472Z,100.00
2022-10-28T22:03:51.119Z,100.00
2022-10-28T22:06:19.841Z,100.00
2022-10-28T22:08:48.905Z,100.00
2022-10-28T22:11:20.144Z,100.00
2022-10-28T22:13:49.174Z,100.00
2022-10-28T22:16:18.921Z,100.00
2022-10-28T22:18:47.741Z,100.00
2022-10-28T22:21:19.776Z,100.00
2022-10-28T22:23:48.508Z,100.00
2022-10-28T22:26:21.177Z,100.00
2022-10-28T22:28:49.634Z,100.00
2022-10-28T22:31:20.009Z,100.00
2022-10-28T22:33:48.379Z,100.00
2022-10-28T22:36:18.439Z,100.00
2022-10-28T22:38:47.431Z,100.00
2022-10-28T22:41:18.768Z,100.00
2022-10-28T22:43:48.128Z,100.00
2022-10-28T22:46:17.264Z,100.00
2022-10-28T22:48:46.225Z,100.00
2022-10-28T22:51:15.014Z,100.00
2022-10-28T22:53:43.941Z,100.00
2022-10-28T22:56:15.521Z,100.00
2022-10-28T22:58:45.174Z,100.00
2022-10-28T23:01:15.567Z,100.00
2022-10-28T23:03:44.849Z,100.00
2022-10-28T23:06:14.500Z,100.00
2022-10-28T23:08:44.890Z,100.00
2022-10-28T23:11:16.827Z,100.00
2022-10-28T23:13:46.640Z,100.00
2022-10-28T23:16:16.861Z,100.00
2022-10-28T23:18:45.835Z,100.00
2022-10-28T23:21:16.321Z,100.00
2022-10-28T23:23:49.830Z,100.00
2022-10-28T23:26:22.158Z,100.00
2022-10-28T23:28:53.775Z,100.00
2022-10-28T23:31:22.960Z,100.00
2022-10-28T23:33:51.605Z,100.00
2022-10-28T23:36:20.286Z,100.00
2022-10-28T23:38:48.863Z,100.00
2022-10-28T23:41:18.940Z,100.00
2022-10-28T23:43:48.853Z,100.00
2022-10-28T23:46:20.525Z,100.00
2022-10-28T23:48:49.150Z,100.00
2022-10-28T23:51:19.370Z,100.00
2022-10-28T23:53:47.986Z,100.00
2022-10-28T23:56:16.657Z,100.00
2022-10-28T23:58:44.931Z,100.00
